createdAt,value
2022-09-13T00:00:50.192Z,100074.13
2022-09-13T00:03:19.501Z,100065.78
2022-09-13T00:05:48.003Z,100074.97
2022-09-13T00:08:16.334Z,100075.16
2022-09-13T00:10:46.063Z,100073.06
2022-09-13T00:13:16.215Z,100078.97
2022-09-13T00:15:45.343Z,100079.75
2022-09-13T00:18:15.064Z,100062.75
2022-09-13T00:20:44.254Z,100068.53
2022-09-13T00:23:12.216Z,100057.91
2022-09-13T00:25:40.675Z,100055.22
2022-09-13T00:28:08.530Z,100052.81
2022-09-13T00:30:36.396Z,100056.78
2022-09-13T00:33:04.695Z,100046.03
2022-09-13T00:35:32.833Z,100037.84
2022-09-13T00:38:03.243Z,100036.94
2022-09-13T00:40:31.180Z,100037.84
2022-09-13T00:42:59.037Z,100015.66
2022-09-13T00:45:26.826Z,100052.13
2022-09-13T00:47:58.188Z,100037.75
2022-09-13T00:50:32.504Z,100035.50
2022-09-13T00:53:06.722Z,100037.63
2022-09-13T00:55:39.879Z,100018.66
2022-09-13T00:58:11.868Z,100012.09
2022-09-13T01:00:41.864Z,100015.34
2022-09-13T01:03:13.201Z,100019.22
2022-09-13T01:05:45.088Z,100013.88
2022-09-13T01:08:22.719Z,100003.69
2022-09-13T01:10:53.021Z,100011.00
2022-09-13T01:13:24.187Z,100003.00
2022-09-13T01:15:53.058Z,99994.81
2022-09-13T01:18:21.230Z,100015.81
2022-09-13T01:21:13.631Z,100022.56
2022-09-13T01:24:19.143Z,100021.50
2022-09-13T01:27:16.900Z,100026.88
2022-09-13T01:30:09.677Z,100029.13
2022-09-13T01:32:57.890Z,100019.47
2022-09-13T01:35:35.915Z,100021.28
2022-09-13T01:38:15.660Z,100018.38
2022-09-13T01:41:04.711Z,100033.91
2022-09-13T01:43:43.074Z,100017.91
2022-09-13T01:46:17.674Z,100010.19
2022-09-13T01:48:58.684Z,100009.88
2022-09-13T01:51:32.852Z,99998.16
2022-09-13T01:54:13.512Z,99988.72
2022-09-13T01:57:01.995Z,99972.75
2022-09-13T01:59:39.473Z,99967.78
2022-09-13T02:02:14.712Z,99968.53
2022-09-13T02:04:47.502Z,99971.66
2022-09-13T02:07:23.364Z,99979.00
2022-09-13T02:09:56.656Z,100009.81
2022-09-13T02:12:27.035Z,100010.75
2022-09-13T02:14:59.753Z,100005.84
2022-09-13T02:17:33.654Z,100019.09
2022-09-13T02:20:04.824Z,100019.81
2022-09-13T02:22:36.839Z,100018.88
2022-09-13T02:25:10.625Z,100026.09
2022-09-13T02:27:42.868Z,100029.56
2022-09-13T02:30:13.538Z,100030.63
2022-09-13T02:32:47.042Z,100032.97
2022-09-13T02:35:20.128Z,100029.56
2022-09-13T02:37:53.281Z,100037.03
2022-09-13T02:40:27.340Z,100032.44
2022-09-13T02:43:00.465Z,100028.88
2022-09-13T02:45:34.657Z,100034.06
2022-09-13T02:48:10.458Z,100027.88
2022-09-13T02:50:48.327Z,100016.00
2022-09-13T02:53:26.160Z,100020.25
2022-09-13T02:56:01.362Z,100022.94
2022-09-13T02:58:35.375Z,100007.75
2022-09-13T03:01:03.283Z,100011.19
2022-09-13T03:03:32.565Z,100023.59
2022-09-13T03:06:01.882Z,100017.06
2022-09-13T03:08:30.847Z,100025.91
2022-09-13T03:11:09.735Z,100012.63
2022-09-13T03:13:55.477Z,100025.28
2022-09-13T03:16:38.471Z,100020.75
2022-09-13T03:19:22.356Z,100008.50
2022-09-13T03:22:08.037Z,99999.84
2022-09-13T03:24:47.194Z,100005.31
2022-09-13T03:27:24.621Z,100002.16
2022-09-13T03:29:59.932Z,100002.41
2022-09-13T03:32:39.282Z,99998.13
2022-09-13T03:35:19.689Z,99998.38
2022-09-13T03:37:55.782Z,99987.03
2022-09-13T03:40:32.507Z,99983.13
2022-09-13T03:43:05.881Z,99982.06
2022-09-13T03:45:39.945Z,99974.13
2022-09-13T03:48:10.421Z,99987.94
2022-09-13T03:50:40.700Z,99986.44
2022-09-13T03:53:11.458Z,99986.63
2022-09-13T03:55:42.125Z,99996.34
2022-09-13T03:58:13.087Z,99990.34
2022-09-13T04:00:41.168Z,99987.03
2022-09-13T04:03:09.316Z,99985.59
2022-09-13T04:05:37.334Z,99978.19
2022-09-13T04:08:07.978Z,99968.81
2022-09-13T04:10:37.681Z,99980.25
2022-09-13T04:13:06.163Z,99977.78
2022-09-13T04:15:34.077Z,99972.81
2022-09-13T04:18:02.041Z,99961.66
2022-09-13T04:20:30.011Z,99974.53
2022-09-13T04:22:58.689Z,99977.00
2022-09-13T04:25:27.850Z,99964.38
2022-09-13T04:27:56.344Z,99976.53
2022-09-13T04:30:24.117Z,99968.91
2022-09-13T04:32:51.982Z,99974.03
2022-09-13T04:35:19.995Z,99973.13
2022-09-13T04:37:47.769Z,99983.63
2022-09-13T04:40:15.859Z,99983.22
2022-09-13T04:42:46.390Z,99982.38
2022-09-13T04:45:14.128Z,99993.38
2022-09-13T04:47:41.998Z,99990.72
2022-09-13T04:50:10.414Z,99971.91
2022-09-13T04:52:38.230Z,99982.41
2022-09-13T04:55:07.409Z,99994.22
2022-09-13T04:57:35.195Z,99980.50
2022-09-13T05:00:06.059Z,99990.66
2022-09-13T05:02:34.151Z,99987.69
2022-09-13T05:05:01.968Z,99984.63
2022-09-13T05:07:29.751Z,99991.06
2022-09-13T05:09:57.587Z,99996.13
2022-09-13T05:12:25.464Z,100000.03
2022-09-13T05:14:53.438Z,100006.91
2022-09-13T05:17:22.537Z,100005.38
2022-09-13T05:19:50.334Z,100005.97
2022-09-13T05:22:18.091Z,99995.53
2022-09-13T05:24:45.819Z,100002.22
2022-09-13T05:27:13.560Z,100009.19
2022-09-13T05:29:41.466Z,100008.19
2022-09-13T05:32:09.286Z,100017.28
2022-09-13T05:34:38.754Z,100011.13
2022-09-13T05:37:06.515Z,100010.91
2022-09-13T05:39:53.983Z,100007.22
2022-09-13T05:42:22.174Z,100007.28
2022-09-13T05:44:49.993Z,99990.69
2022-09-13T05:47:17.811Z,99996.59
2022-09-13T05:50:08.999Z,99993.03
2022-09-13T05:52:34.870Z,100028.59
2022-09-13T05:55:02.758Z,100027.22
2022-09-13T05:57:31.916Z,100038.44
2022-09-13T05:59:59.967Z,100037.59
2022-09-13T06:02:27.920Z,100030.41
2022-09-13T06:04:57.054Z,100028.31
2022-09-13T06:07:24.810Z,100026.09
2022-09-13T06:09:53.382Z,100026.94
2022-09-13T06:12:21.365Z,100012.63
2022-09-13T06:14:49.617Z,100018.16
2022-09-13T06:17:17.950Z,100032.19
2022-09-13T06:19:45.795Z,100019.84
2022-09-13T06:22:15.215Z,100020.09
2022-09-13T06:24:43.091Z,100009.97
2022-09-13T06:27:11.235Z,100018.53
2022-09-13T06:29:39.140Z,100011.78
2022-09-13T06:32:08.221Z,100012.44
2022-09-13T06:34:36.099Z,100001.81
2022-09-13T06:37:04.050Z,100002.75
2022-09-13T06:39:34.261Z,99992.06
2022-09-13T06:42:02.076Z,100005.13
2022-09-13T06:44:30.902Z,100009.53
2022-09-13T06:46:58.928Z,100010.69
2022-09-13T06:49:29.114Z,100020.88
2022-09-13T06:51:56.884Z,100018.75
2022-09-13T06:54:25.669Z,100013.66
2022-09-13T06:56:56.167Z,100029.91
2022-09-13T06:59:24.190Z,100030.84
2022-09-13T07:01:52.585Z,100025.81
2022-09-13T07:04:20.493Z,100026.34
2022-09-13T07:06:49.811Z,100033.94
2022-09-13T07:09:19.637Z,100036.00
2022-09-13T07:11:48.072Z,100043.34
2022-09-13T07:14:18.742Z,100031.59
2022-09-13T07:16:47.170Z,100034.41
2022-09-13T07:19:16.798Z,100027.97
2022-09-13T07:21:45.194Z,100035.44
2022-09-13T07:24:13.658Z,100032.19
2022-09-13T07:26:41.456Z,100030.09
2022-09-13T07:29:13.567Z,99983.94
2022-09-13T07:31:44.881Z,100020.41
2022-09-13T07:34:14.699Z,100039.66
2022-09-13T07:36:43.085Z,100043.03
2022-09-13T07:39:14.909Z,100035.09
2022-09-13T07:41:44.751Z,100021.19
2022-09-13T07:44:13.661Z,100024.75
2022-09-13T07:46:43.689Z,100012.41
2022-09-13T07:49:13.530Z,100031.13
2022-09-13T07:51:43.294Z,100018.75
2022-09-13T07:54:13.714Z,100012.19
2022-09-13T07:56:42.106Z,100016.94
2022-09-13T07:59:14.540Z,100005.44
2022-09-13T08:01:45.507Z,100005.72
2022-09-13T08:04:17.151Z,99995.25
2022-09-13T08:06:46.740Z,99996.66
2022-09-13T08:09:19.049Z,99978.78
2022-09-13T08:11:48.898Z,99977.69
2022-09-13T08:14:18.638Z,99976.31
2022-09-13T08:16:48.108Z,99970.53
2022-09-13T08:19:18.976Z,99962.19
2022-09-13T08:21:47.559Z,99962.56
2022-09-13T08:24:17.699Z,99982.91
2022-09-13T08:26:46.406Z,99984.00
2022-09-13T08:29:15.173Z,99985.34
2022-09-13T08:31:43.738Z,99978.97
2022-09-13T08:34:15.707Z,99985.28
2022-09-13T08:36:44.582Z,99992.38
2022-09-13T08:39:13.709Z,100003.06
2022-09-13T08:42:09.855Z,99999.03
2022-09-13T08:44:42.778Z,100009.59
2022-09-13T08:47:39.557Z,100007.34
2022-09-13T08:50:14.076Z,99998.16
2022-09-13T08:52:53.060Z,100006.81
2022-09-13T08:55:28.631Z,100000.34
2022-09-13T08:58:02.324Z,100004.38
2022-09-13T09:00:35.780Z,99993.56
2022-09-13T09:03:15.372Z,99995.50
2022-09-13T09:05:48.977Z,99978.28
2022-09-13T09:08:32.206Z,99988.53
2022-09-13T09:11:04.675Z,100001.16
2022-09-13T09:13:36.223Z,99999.47
2022-09-13T09:16:08.308Z,99999.91
2022-09-13T09:18:40.124Z,100001.72
2022-09-13T09:21:16.665Z,100008.25
2022-09-13T09:23:51.679Z,100001.13
2022-09-13T09:26:21.280Z,99990.44
2022-09-13T09:28:55.082Z,99979.88
2022-09-13T09:31:34.579Z,99970.56
2022-09-13T09:34:12.226Z,99991.16
2022-09-13T09:36:46.112Z,100001.88
2022-09-13T09:39:16.409Z,99992.78
2022-09-13T09:41:45.372Z,99982.09
2022-09-13T09:44:20.320Z,99981.81
2022-09-13T09:46:52.711Z,99951.91
2022-09-13T09:49:44.065Z,99930.72
2022-09-13T09:52:17.386Z,99968.06
2022-09-13T09:54:46.571Z,99974.91
2022-09-13T09:57:14.904Z,99989.47
2022-09-13T09:59:43.103Z,99996.91
2022-09-13T10:02:18.688Z,99997.34
2022-09-13T10:04:57.534Z,100004.31
2022-09-13T10:07:34.474Z,99994.41
2022-09-13T10:10:06.468Z,100001.28
2022-09-13T10:12:36.769Z,100005.13
2022-09-13T10:15:15.450Z,99993.59
2022-09-13T10:17:43.673Z,99999.94
2022-09-13T10:20:26.719Z,100008.16
2022-09-13T10:23:20.475Z,100017.22
2022-09-13T10:25:59.687Z,100014.19
2022-09-13T10:28:28.156Z,100005.72
2022-09-13T10:30:59.896Z,100013.84
2022-09-13T10:33:32.105Z,100005.88
2022-09-13T10:36:03.875Z,100015.44
2022-09-13T10:38:36.850Z,100014.94
2022-09-13T10:41:09.423Z,100002.50
2022-09-13T10:43:38.609Z,99969.81
2022-09-13T10:46:12.568Z,99990.41
2022-09-13T10:48:47.132Z,100004.75
2022-09-13T10:51:40.281Z,100003.44
2022-09-13T10:54:18.511Z,99998.19
2022-09-13T10:56:46.473Z,100012.06
2022-09-13T10:59:22.571Z,100003.59
2022-09-13T11:02:27.531Z,100004.75
2022-09-13T11:05:10.038Z,100000.66
2022-09-13T11:07:57.306Z,100003.81
2022-09-13T11:10:33.787Z,100002.16
2022-09-13T11:13:15.607Z,99979.09
2022-09-13T11:15:54.406Z,99986.88
2022-09-13T11:18:56.668Z,99972.47
2022-09-13T11:21:39.280Z,99988.69
2022-09-13T11:24:23.574Z,99990.03
2022-09-13T11:27:04.475Z,99988.19
2022-09-13T11:30:01.133Z,99976.94
2022-09-13T11:32:41.196Z,99961.56
2022-09-13T11:35:35.793Z,99958.13
2022-09-13T11:38:19.441Z,99972.94
2022-09-13T11:40:55.569Z,99977.88
2022-09-13T11:43:40.527Z,99966.31
2022-09-13T11:46:15.324Z,99965.59
2022-09-13T11:48:59.483Z,99959.16
2022-09-13T11:51:35.238Z,99961.88
2022-09-13T11:54:14.449Z,99938.19
2022-09-13T11:56:45.688Z,99941.25
2022-09-13T11:59:25.168Z,99943.75
2022-09-13T12:01:58.811Z,99932.19
2022-09-13T12:04:33.938Z,99946.63
2022-09-13T12:07:06.024Z,99942.72
2022-09-13T12:09:38.213Z,99953.63
2022-09-13T12:12:08.519Z,99937.66
2022-09-13T12:14:46.475Z,99929.38
2022-09-13T12:17:26.047Z,99933.34
2022-09-13T12:19:57.222Z,99935.63
2022-09-13T12:22:30.851Z,99936.97
2022-09-13T12:25:03.730Z,99926.38
2022-09-13T12:27:40.347Z,99924.56
2022-09-13T12:30:23.007Z,99908.69
2022-09-13T12:32:58.808Z,99903.44
2022-09-13T12:35:31.401Z,99905.94
2022-09-13T12:38:29.445Z,99902.91
2022-09-13T12:41:11.357Z,99890.50
2022-09-13T12:43:56.733Z,99898.34
2022-09-13T12:46:46.581Z,99886.22
2022-09-13T12:49:39.508Z,99880.56
2022-09-13T12:52:34.295Z,99895.16
2022-09-13T12:55:46.236Z,99897.81
2022-09-13T12:58:40.197Z,99891.88
2022-09-13T13:01:15.715Z,99894.31
2022-09-13T13:03:52.118Z,99900.28
2022-09-13T13:06:27.739Z,99890.72
2022-09-13T13:08:58.010Z,99885.41
2022-09-13T13:11:28.464Z,99889.41
2022-09-13T13:13:58.932Z,99879.16
2022-09-13T13:16:31.255Z,99882.03
2022-09-13T13:19:02.026Z,99887.88
2022-09-13T13:21:33.854Z,99883.06
2022-09-13T13:24:39.483Z,99882.75
2022-09-13T13:27:54.930Z,99881.22
2022-09-13T13:30:42.557Z,99880.88
2022-09-13T13:33:17.685Z,99874.19
2022-09-13T13:35:47.007Z,99866.88
2022-09-13T13:38:38.533Z,99867.44
2022-09-13T13:41:12.747Z,99872.50
2022-09-13T13:43:40.895Z,99870.66
2022-09-13T13:46:30.527Z,99858.19
2022-09-13T13:49:46.144Z,99859.81
2022-09-13T13:52:41.075Z,99853.41
2022-09-13T13:55:38.674Z,99852.75
2022-09-13T13:58:28.517Z,99860.03
2022-09-13T14:00:59.881Z,99845.47
2022-09-13T14:03:42.928Z,99831.47
2022-09-13T14:06:15.901Z,99822.34
2022-09-13T14:11:42.582Z,99813.38
2022-09-13T14:14:29.956Z,99823.19
2022-09-13T14:17:19.247Z,99820.47
2022-09-13T14:19:50.194Z,99827.69
2022-09-13T14:22:21.241Z,99818.44
2022-09-13T14:24:52.492Z,99822.53
2022-09-13T14:27:22.759Z,99815.28
2022-09-13T14:29:53.026Z,99799.91
2022-09-13T14:32:23.425Z,99829.59
2022-09-13T14:34:55.375Z,99819.69
2022-09-13T14:37:30.021Z,99833.84
2022-09-13T14:40:02.348Z,99826.81
2022-09-13T14:42:40.001Z,99815.16
2022-09-13T14:45:14.062Z,99815.41
2022-09-13T14:47:51.500Z,99827.63
2022-09-13T14:50:23.440Z,99828.63
2022-09-13T14:52:56.043Z,99831.63
2022-09-13T14:55:30.148Z,99826.66
2022-09-13T14:58:04.271Z,99823.06
2022-09-13T15:00:35.142Z,99818.69
2022-09-13T15:03:15.872Z,99809.06
2022-09-13T15:05:53.086Z,99801.41
2022-09-13T15:08:40.726Z,99815.06
2022-09-13T15:11:17.579Z,99800.66
2022-09-13T15:13:45.686Z,99796.78
2022-09-13T15:16:29.671Z,99805.66
2022-09-13T15:19:17.342Z,99791.69
2022-09-13T15:21:46.603Z,99784.00
2022-09-13T15:24:32.319Z,99793.09
2022-09-13T15:27:07.961Z,99777.59
2022-09-13T15:29:37.581Z,99774.53
2022-09-13T15:32:06.720Z,99785.72
2022-09-13T15:34:34.933Z,99788.59
2022-09-13T15:37:09.326Z,99775.94
2022-09-13T15:39:45.200Z,99778.00
2022-09-13T15:42:14.702Z,99779.38
2022-09-13T15:44:42.738Z,99772.97
2022-09-13T15:47:12.715Z,99776.31
2022-09-13T15:49:41.931Z,99770.00
2022-09-13T15:52:11.254Z,99777.94
2022-09-13T15:54:41.246Z,99769.22
2022-09-13T15:57:34.390Z,99773.91
2022-09-13T16:00:06.544Z,99772.66
2022-09-13T16:02:35.748Z,99765.09
2022-09-13T16:05:03.623Z,99763.44
2022-09-13T16:07:31.677Z,99756.03
2022-09-13T16:09:59.644Z,99759.94
2022-09-13T16:12:29.057Z,99757.25
2022-09-13T16:14:56.902Z,99756.13
2022-09-13T16:17:26.526Z,99755.69
2022-09-13T16:19:54.756Z,99753.53
2022-09-13T16:22:23.346Z,99760.91
2022-09-13T16:24:51.588Z,99757.31
2022-09-13T16:27:21.102Z,99744.19
2022-09-13T16:30:03.621Z,99726.59
2022-09-13T16:32:31.557Z,99762.97
2022-09-13T16:34:59.674Z,99748.56
2022-09-13T16:37:27.800Z,99748.50
2022-09-13T16:39:57.622Z,99741.75
2022-09-13T16:42:25.993Z,99740.84
2022-09-13T16:44:55.225Z,99759.97
2022-09-13T16:47:23.318Z,99745.00
2022-09-13T16:49:51.119Z,99747.53
2022-09-13T16:52:18.883Z,99755.06
2022-09-13T16:54:49.449Z,99747.56
2022-09-13T16:57:17.287Z,99759.50
2022-09-13T16:59:46.737Z,99767.94
2022-09-13T17:02:16.585Z,99763.31
2022-09-13T17:04:44.831Z,99766.09
2022-09-13T17:07:13.296Z,99768.47
2022-09-13T17:09:41.357Z,99759.47
2022-09-13T17:12:09.853Z,99763.41
2022-09-13T17:14:38.917Z,99763.59
2022-09-13T17:17:07.060Z,99775.25
2022-09-13T17:19:36.933Z,99772.34
2022-09-13T17:22:08.102Z,99770.47
2022-09-13T17:24:37.145Z,99774.16
2022-09-13T17:27:06.706Z,99793.09
2022-09-13T17:29:35.438Z,99789.84
2022-09-13T17:32:06.075Z,99790.13
2022-09-13T17:34:34.955Z,99794.88
2022-09-13T17:37:06.711Z,99781.75
2022-09-13T17:39:34.764Z,99781.25
2022-09-13T17:42:02.580Z,99776.22
2022-09-13T17:44:30.391Z,99777.31
2022-09-13T17:46:58.365Z,99764.22
2022-09-13T17:49:27.417Z,99777.13
2022-09-13T17:51:55.931Z,99780.44
2022-09-13T17:54:26.047Z,99773.06
2022-09-13T17:56:54.094Z,99785.69
2022-09-13T17:59:23.089Z,99801.91
2022-09-13T18:01:52.717Z,99794.75
2022-09-13T18:04:22.323Z,99792.63
2022-09-13T18:06:51.862Z,99799.72
2022-09-13T18:09:19.674Z,99803.31
2022-09-13T18:11:48.809Z,99783.25
2022-09-13T18:14:18.952Z,99773.88
2022-09-13T18:16:47.179Z,99765.72
2022-09-13T18:19:15.525Z,99784.66
2022-09-13T18:21:43.351Z,99799.56
2022-09-13T18:24:11.214Z,99772.16
2022-09-13T18:26:38.969Z,99783.97
2022-09-13T18:29:12.489Z,99783.09
2022-09-13T18:31:41.828Z,99770.47
2022-09-13T18:34:12.705Z,99775.13
2022-09-13T18:36:41.820Z,99768.75
2022-09-13T18:39:15.811Z,99768.78
2022-09-13T18:41:45.155Z,99766.00
2022-09-13T18:44:15.516Z,99747.38
2022-09-13T18:46:44.353Z,99743.28
2022-09-13T18:49:12.587Z,99752.38
2022-09-13T18:51:42.601Z,99747.19
2022-09-13T18:54:13.211Z,99751.56
2022-09-13T18:56:41.379Z,99760.09
2022-09-13T18:59:11.024Z,99767.75
2022-09-13T19:01:41.738Z,99766.13
2022-09-13T19:04:12.721Z,99756.78
2022-09-13T19:06:42.718Z,99771.63
2022-09-13T19:09:11.797Z,99774.38
2022-09-13T19:11:46.874Z,99777.66
2022-09-13T19:14:16.561Z,99767.75
2022-09-13T19:16:45.969Z,99771.03
2022-09-13T19:19:23.211Z,99772.41
2022-09-13T19:21:54.398Z,99771.56
2022-09-13T19:24:22.388Z,99769.69
2022-09-13T19:26:52.537Z,99777.38
2022-09-13T19:29:22.644Z,99767.50
2022-09-13T19:31:53.161Z,99770.50
2022-09-13T19:34:23.660Z,99757.06
2022-09-13T19:36:57.335Z,99761.34
2022-09-13T19:39:29.153Z,99751.19
2022-09-13T19:41:58.148Z,99739.44
2022-09-13T19:44:26.293Z,99747.16
2022-09-13T19:47:23.858Z,99748.81
2022-09-13T19:49:44.121Z,99752.41
2022-09-13T19:52:11.949Z,99749.94
2022-09-13T19:54:39.846Z,99758.72
2022-09-13T19:57:09.559Z,99754.91
2022-09-13T19:59:37.353Z,99759.25
2022-09-13T20:02:06.937Z,99757.66
2022-09-13T20:04:36.181Z,99761.22
2022-09-13T20:07:04.110Z,99753.16
2022-09-13T20:09:31.945Z,99747.16
2022-09-13T20:12:00.669Z,99746.13
2022-09-13T20:14:28.869Z,99759.84
2022-09-13T20:16:56.650Z,99760.41
2022-09-13T20:19:46.219Z,99751.34
2022-09-13T20:22:13.895Z,99752.16
2022-09-13T20:24:41.745Z,99764.53
2022-09-13T20:27:09.574Z,99746.69
2022-09-13T20:29:37.827Z,99748.88
2022-09-13T20:32:05.740Z,99752.72
2022-09-13T20:34:35.125Z,99763.44
2022-09-13T20:37:02.888Z,99757.34
2022-09-13T20:39:30.648Z,99757.59
2022-09-13T20:41:59.000Z,99767.50
2022-09-13T20:44:26.814Z,99770.25
2022-09-13T20:46:55.596Z,99767.31
2022-09-13T20:49:23.460Z,99775.56
2022-09-13T20:51:53.163Z,99765.09
2022-09-13T20:54:20.971Z,99765.59
2022-09-13T20:56:49.174Z,99759.03
2022-09-13T20:59:16.937Z,99751.13
2022-09-13T21:01:45.090Z,99761.56
2022-09-13T21:04:13.004Z,99745.63
2022-09-13T21:06:57.730Z,99734.41
2022-09-13T21:09:27.205Z,99745.06
2022-09-13T21:11:55.089Z,99736.28
2022-09-13T21:14:23.681Z,99744.78
2022-09-13T21:16:51.514Z,99747.00
2022-09-13T21:19:19.793Z,99749.19
2022-09-13T21:21:48.514Z,99739.31
2022-09-13T21:24:16.452Z,99738.75
2022-09-13T21:26:45.640Z,99728.34
2022-09-13T21:29:13.515Z,99728.66
2022-09-13T21:31:42.048Z,99721.22
2022-09-13T21:34:15.047Z,99706.38
2022-09-13T21:36:43.187Z,99722.88
2022-09-13T21:39:11.127Z,99722.88
2022-09-13T21:41:39.313Z,99719.88
2022-09-13T21:44:08.711Z,99713.84
2022-09-13T21:46:38.526Z,99702.03
2022-09-13T21:49:08.461Z,99689.88
2022-09-13T21:51:37.719Z,99692.88
2022-09-13T21:54:08.186Z,99678.13
2022-09-13T21:56:38.229Z,99684.44
2022-09-13T21:59:09.521Z,99675.69
2022-09-13T22:01:39.654Z,99675.41
2022-09-13T22:04:08.496Z,99671.88
2022-09-13T22:06:37.103Z,99685.56
2022-09-13T22:09:07.419Z,99693.53
2022-09-13T22:11:38.476Z,99696.56
2022-09-13T22:14:09.400Z,99691.06
2022-09-13T22:16:38.883Z,99707.81
2022-09-13T22:19:09.589Z,99694.91
2022-09-13T22:21:40.005Z,99694.09
2022-09-13T22:24:09.740Z,99688.03
2022-09-13T22:26:39.583Z,99686.41
2022-09-13T22:29:09.692Z,99674.63
2022-09-13T22:31:40.426Z,99664.75
2022-09-13T22:34:11.613Z,99660.06
2022-09-13T22:36:39.502Z,99632.09
2022-09-13T22:39:07.350Z,99644.94
2022-09-13T22:41:36.211Z,99648.81
2022-09-13T22:44:04.854Z,99638.94
2022-09-13T22:46:35.960Z,99634.00
2022-09-13T22:49:05.297Z,99633.44
2022-09-13T22:51:33.659Z,99623.34
2022-09-13T22:54:06.821Z,99643.06
2022-09-13T22:56:36.297Z,99648.31
2022-09-13T22:59:07.387Z,99649.41
2022-09-13T23:01:36.799Z,99649.69
2022-09-13T23:04:05.699Z,99661.50
2022-09-13T23:06:34.167Z,99664.78
2022-09-13T23:09:05.336Z,99658.19
2022-09-13T23:11:35.766Z,99660.13
2022-09-13T23:14:09.843Z,99658.19
2022-09-13T23:16:40.487Z,99644.47
2022-09-13T23:19:08.343Z,99639.25
2022-09-13T23:21:38.697Z,99639.00
2022-09-13T23:24:08.421Z,99634.59
2022-09-13T23:26:36.166Z,99626.66
2022-09-13T23:29:05.719Z,99611.84
2022-09-13T23:31:35.644Z,99616.53
2022-09-13T23:34:06.463Z,99620.69
2022-09-13T23:36:36.806Z,99623.44
2022-09-13T23:39:07.834Z,99624.78
2022-09-13T23:41:36.000Z,99619.03
2022-09-13T23:44:04.904Z,99616.31
2022-09-13T23:46:32.677Z,99624.78
2022-09-13T23:49:00.432Z,99621.53
2022-09-13T23:51:29.634Z,99622.63
2022-09-13T23:54:00.822Z,99622.09
2022-09-13T23:56:31.639Z,99629.50
2022-09-13T23:59:00.895Z,99633.06
